UAL1260 KSFO-KLAX
Flight info
| Callsign | UAL1260 |
|---|---|
| Flight time | N/A |
| Altitude | 35000 |
| Route | WESLA5 SUSEY EBAYE BURGL IRNMN2 |
| Aircraft | A320/M-SDE3FGHIRWY/LB1 |
Departure
| Time | N/A |
|---|---|
| Airport | San Francisco International Airport (KSFO) |
Arrival
| Time | 2026-04-26 06:28 |
|---|---|
| Airport | Los Angeles International Airport (KLAX) |
| Time | Latitude | Longitude | Altitude | Speed | Heading |
|---|---|---|---|---|---|
| 2026-04-26 05:43 | 36.80558 | -121.55441 | 28975 ft | 457 kts | 134° |
| 2026-04-26 05:44 | 36.78374 | -121.52540 | 29316 ft | 460 kts | 134° |
| 2026-04-26 05:44 | 36.76182 | -121.49629 | 29661 ft | 462 kts | 134° |
| 2026-04-26 05:44 | 36.73977 | -121.46705 | 29998 ft | 464 kts | 134° |
| 2026-04-26 05:44 | 36.71756 | -121.43764 | 30281 ft | 466 kts | 134° |
| 2026-04-26 05:45 | 36.69524 | -121.40817 | 30535 ft | 469 kts | 135° |
| 2026-04-26 05:45 | 36.67274 | -121.37858 | 30808 ft | 471 kts | 135° |
| 2026-04-26 05:45 | 36.65009 | -121.34887 | 31074 ft | 473 kts | 135° |
| 2026-04-26 05:45 | 36.62737 | -121.31906 | 31373 ft | 474 kts | 135° |
| 2026-04-26 05:46 | 36.60465 | -121.28923 | 31749 ft | 474 kts | 135° |
| 2026-04-26 05:46 | 36.58201 | -121.25948 | 32128 ft | 473 kts | 135° |
| 2026-04-26 05:46 | 36.55944 | -121.22976 | 32491 ft | 473 kts | 135° |
| 2026-04-26 05:46 | 36.53686 | -121.20001 | 32848 ft | 473 kts | 135° |
| 2026-04-26 05:47 | 36.51426 | -121.17030 | 33213 ft | 473 kts | 136° |
| 2026-04-26 05:47 | 36.49195 | -121.14102 | 33571 ft | 472 kts | 136° |
| 2026-04-26 05:47 | 36.46935 | -121.11144 | 33934 ft | 472 kts | 136° |
| 2026-04-26 05:47 | 36.44671 | -121.08190 | 34248 ft | 472 kts | 136° |
| 2026-04-26 05:48 | 36.42411 | -121.05224 | 34551 ft | 472 kts | 135° |
| 2026-04-26 05:48 | 36.40211 | -121.02201 | 34835 ft | 473 kts | 134° |
| 2026-04-26 05:48 | 36.38059 | -120.99112 | 34946 ft | 471 kts | 133° |
| 2026-04-26 05:48 | 36.35958 | -120.96019 | 34972 ft | 469 kts | 133° |
| 2026-04-26 05:49 | 36.29651 | -120.86757 | 34967 ft | 467 kts | 134° |
| 2026-04-26 05:50 | 36.25419 | -120.80706 | 34967 ft | 467 kts | 134° |
| 2026-04-26 05:50 | 36.21150 | -120.74636 | 34963 ft | 467 kts | 134° |
| 2026-04-26 05:51 | 36.16884 | -120.68565 | 34965 ft | 467 kts | 134° |
| 2026-04-26 05:51 | 36.12626 | -120.62494 | 34975 ft | 467 kts | 134° |
| 2026-04-26 05:52 | 36.08367 | -120.56431 | 34975 ft | 467 kts | 134° |
| 2026-04-26 05:52 | 36.04104 | -120.50392 | 34976 ft | 466 kts | 134° |
| 2026-04-26 05:53 | 35.99832 | -120.44352 | 34972 ft | 466 kts | 134° |
| 2026-04-26 05:53 | 35.95566 | -120.38317 | 34979 ft | 466 kts | 134° |
| 2026-04-26 05:54 | 35.91327 | -120.32332 | 34975 ft | 466 kts | 134° |
| 2026-04-26 05:54 | 35.86924 | -120.26496 | 34974 ft | 462 kts | 143° |
| 2026-04-26 05:55 | 35.81646 | -120.22109 | 34960 ft | 457 kts | 153° |
| 2026-04-26 05:55 | 35.76220 | -120.18022 | 34966 ft | 457 kts | 153° |
| 2026-04-26 05:56 | 35.70803 | -120.13931 | 34959 ft | 457 kts | 153° |
| 2026-04-26 05:56 | 35.65372 | -120.09848 | 34960 ft | 457 kts | 153° |
| 2026-04-26 05:57 | 35.59942 | -120.05755 | 34957 ft | 458 kts | 153° |
| 2026-04-26 05:57 | 35.54512 | -120.01655 | 34679 ft | 459 kts | 153° |
| 2026-04-26 05:57 | 35.51797 | -119.99609 | 34199 ft | 457 kts | 153° |
| 2026-04-26 05:58 | 35.49099 | -119.97575 | 33660 ft | 454 kts | 152° |
| 2026-04-26 05:58 | 35.46415 | -119.95553 | 33136 ft | 450 kts | 152° |
| 2026-04-26 05:58 | 35.43791 | -119.93582 | 32643 ft | 446 kts | 152° |
| 2026-04-26 05:58 | 35.41153 | -119.91603 | 32135 ft | 442 kts | 152° |
| 2026-04-26 05:59 | 35.38536 | -119.89641 | 31643 ft | 438 kts | 152° |
| 2026-04-26 05:59 | 35.35945 | -119.87701 | 31175 ft | 434 kts | 152° |
| 2026-04-26 05:59 | 35.33377 | -119.85776 | 30705 ft | 431 kts | 152° |
| 2026-04-26 05:59 | 35.30827 | -119.83870 | 30270 ft | 427 kts | 152° |
| 2026-04-26 06:00 | 35.28336 | -119.81908 | 29794 ft | 425 kts | 146° |
| 2026-04-26 06:00 | 35.25990 | -119.79717 | 29273 ft | 422 kts | 146° |
| 2026-04-26 06:00 | 35.23668 | -119.77542 | 28764 ft | 419 kts | 146° |
| 2026-04-26 06:00 | 35.21390 | -119.75408 | 28289 ft | 415 kts | 146° |
| 2026-04-26 06:01 | 35.19104 | -119.73272 | 27824 ft | 412 kts | 146° |
| 2026-04-26 06:01 | 35.16832 | -119.71153 | 27376 ft | 409 kts | 146° |
| 2026-04-26 06:01 | 35.14576 | -119.69053 | 26946 ft | 406 kts | 146° |
| 2026-04-26 06:01 | 35.12339 | -119.66973 | 26522 ft | 403 kts | 146° |
| 2026-04-26 06:02 | 35.10114 | -119.64900 | 26112 ft | 401 kts | 146° |
| 2026-04-26 06:02 | 35.07908 | -119.62839 | 25716 ft | 398 kts | 146° |
| 2026-04-26 06:02 | 35.05718 | -119.60793 | 25327 ft | 395 kts | 146° |
| 2026-04-26 06:02 | 35.03543 | -119.58760 | 24925 ft | 393 kts | 146° |
| 2026-04-26 06:03 | 35.01377 | -119.56743 | 24520 ft | 390 kts | 146° |
| 2026-04-26 06:03 | 34.99221 | -119.54746 | 24120 ft | 388 kts | 146° |
| 2026-04-26 06:03 | 34.97080 | -119.52768 | 23721 ft | 385 kts | 147° |
| 2026-04-26 06:03 | 34.94949 | -119.50806 | 23291 ft | 383 kts | 147° |
| 2026-04-26 06:04 | 34.92833 | -119.48854 | 22823 ft | 380 kts | 146° |
| 2026-04-26 06:04 | 34.90728 | -119.46908 | 22346 ft | 378 kts | 147° |
| 2026-04-26 06:04 | 34.88632 | -119.45000 | 21869 ft | 375 kts | 147° |
| 2026-04-26 06:04 | 34.86538 | -119.43122 | 21399 ft | 372 kts | 148° |
| 2026-04-26 06:05 | 34.84482 | -119.41292 | 20952 ft | 370 kts | 148° |
| 2026-04-26 06:05 | 34.82410 | -119.39448 | 20497 ft | 368 kts | 148° |
| 2026-04-26 06:05 | 34.80354 | -119.37617 | 20037 ft | 366 kts | 148° |
| 2026-04-26 06:05 | 34.78308 | -119.35794 | 19604 ft | 363 kts | 148° |
| 2026-04-26 06:06 | 34.76276 | -119.33981 | 19173 ft | 361 kts | 148° |
| 2026-04-26 06:06 | 34.74257 | -119.32179 | 18749 ft | 359 kts | 148° |
| 2026-04-26 06:06 | 34.72239 | -119.30401 | 18329 ft | 357 kts | 148° |
| 2026-04-26 06:06 | 34.70228 | -119.28645 | 17865 ft | 355 kts | 148° |
| 2026-04-26 06:07 | 34.68227 | -119.26906 | 17401 ft | 352 kts | 148° |
| 2026-04-26 06:07 | 34.66240 | -119.25180 | 16944 ft | 349 kts | 148° |
| 2026-04-26 06:07 | 34.64933 | -119.24044 | 16645 ft | 348 kts | 148° |
| 2026-04-26 06:07 | 34.62972 | -119.22341 | 16229 ft | 345 kts | 148° |
| 2026-04-26 06:08 | 34.61023 | -119.20654 | 15803 ft | 342 kts | 148° |
| 2026-04-26 06:08 | 34.59092 | -119.18989 | 15391 ft | 340 kts | 148° |
| 2026-04-26 06:08 | 34.57168 | -119.17331 | 14993 ft | 337 kts | 148° |
| 2026-04-26 06:08 | 34.55262 | -119.15687 | 14601 ft | 335 kts | 148° |
| 2026-04-26 06:09 | 34.53379 | -119.14037 | 14215 ft | 333 kts | 148° |
| 2026-04-26 06:09 | 34.51514 | -119.12386 | 13872 ft | 330 kts | 147° |
| 2026-04-26 06:09 | 34.49664 | -119.10745 | 13489 ft | 328 kts | 147° |
| 2026-04-26 06:09 | 34.47829 | -119.09116 | 13078 ft | 326 kts | 147° |
| 2026-04-26 06:10 | 34.46001 | -119.07495 | 12647 ft | 325 kts | 147° |
| 2026-04-26 06:10 | 34.44185 | -119.05885 | 12250 ft | 323 kts | 148° |
| 2026-04-26 06:10 | 34.42369 | -119.04292 | 11866 ft | 321 kts | 148° |
| 2026-04-26 06:10 | 34.40578 | -119.02741 | 11481 ft | 319 kts | 148° |
| 2026-04-26 06:11 | 34.38770 | -119.01182 | 11084 ft | 318 kts | 149° |
| 2026-04-26 06:11 | 34.36973 | -118.99635 | 10699 ft | 316 kts | 149° |
| 2026-04-26 06:11 | 34.35187 | -118.98094 | 10311 ft | 314 kts | 149° |
| 2026-04-26 06:11 | 34.33412 | -118.96552 | 9975 ft | 312 kts | 148° |
| 2026-04-26 06:12 | 34.31695 | -118.95010 | 9826 ft | 302 kts | 148° |
| 2026-04-26 06:12 | 34.30039 | -118.93497 | 9704 ft | 297 kts | 147° |
| 2026-04-26 06:12 | 34.28394 | -118.91991 | 9566 ft | 296 kts | 147° |
| 2026-04-26 06:12 | 34.26747 | -118.90486 | 9437 ft | 295 kts | 148° |
| 2026-04-26 06:13 | 34.25111 | -118.88996 | 9301 ft | 295 kts | 148° |
| 2026-04-26 06:13 | 34.23501 | -118.87520 | 9172 ft | 294 kts | 147° |
| 2026-04-26 06:13 | 34.21874 | -118.86021 | 9037 ft | 293 kts | 147° |
| 2026-04-26 06:13 | 34.20253 | -118.84528 | 8902 ft | 292 kts | 147° |
| 2026-04-26 06:14 | 34.18637 | -118.83038 | 8775 ft | 291 kts | 147° |
| 2026-04-26 06:14 | 34.17028 | -118.81556 | 8633 ft | 290 kts | 147° |
| 2026-04-26 06:14 | 34.15453 | -118.80032 | 8597 ft | 290 kts | 144° |
| 2026-04-26 06:14 | 34.13928 | -118.78412 | 8803 ft | 292 kts | 142° |
| 2026-04-26 06:15 | 34.12443 | -118.76776 | 8955 ft | 293 kts | 142° |
| 2026-04-26 06:15 | 34.10942 | -118.75107 | 8983 ft | 292 kts | 142° |
| 2026-04-26 06:15 | 34.09445 | -118.73446 | 8990 ft | 292 kts | 142° |
| 2026-04-26 06:15 | 34.07946 | -118.71796 | 8985 ft | 291 kts | 142° |
| 2026-04-26 06:16 | 34.06444 | -118.70149 | 9004 ft | 289 kts | 142° |
| 2026-04-26 06:16 | 34.04977 | -118.68544 | 9005 ft | 279 kts | 142° |
| 2026-04-26 06:16 | 34.03714 | -118.66740 | 8998 ft | 285 kts | 126° |
| 2026-04-26 06:16 | 34.02890 | -118.64545 | 8947 ft | 291 kts | 109° |
| 2026-04-26 06:17 | 34.02564 | -118.62127 | 8812 ft | 293 kts | 98° |
| 2026-04-26 06:17 | 34.02352 | -118.59724 | 8685 ft | 292 kts | 99° |
| 2026-04-26 06:17 | 34.02121 | -118.57295 | 8555 ft | 292 kts | 99° |
| 2026-04-26 06:17 | 34.01884 | -118.54865 | 8426 ft | 291 kts | 99° |
| 2026-04-26 06:18 | 34.01651 | -118.52443 | 8153 ft | 294 kts | 99° |
| 2026-04-26 06:18 | 34.01415 | -118.49964 | 7752 ft | 295 kts | 98° |
| 2026-04-26 06:18 | 34.01189 | -118.47544 | 7624 ft | 286 kts | 98° |
| 2026-04-26 06:18 | 34.01127 | -118.45182 | 7492 ft | 279 kts | 84° |
| 2026-04-26 06:19 | 34.01485 | -118.42863 | 7100 ft | 283 kts | 79° |
| 2026-04-26 06:19 | 34.01885 | -118.40560 | 6738 ft | 285 kts | 78° |
| 2026-04-26 06:19 | 34.02293 | -118.38221 | 6373 ft | 285 kts | 78° |
| 2026-04-26 06:19 | 34.02691 | -118.35924 | 6042 ft | 273 kts | 79° |
| 2026-04-26 06:20 | 34.02987 | -118.33749 | 5997 ft | 252 kts | 83° |
| 2026-04-26 06:20 | 34.03206 | -118.31679 | 5932 ft | 248 kts | 84° |
| 2026-04-26 06:20 | 34.03404 | -118.29617 | 5582 ft | 245 kts | 84° |
| 2026-04-26 06:20 | 34.03606 | -118.27589 | 5097 ft | 243 kts | 83° |
| 2026-04-26 06:21 | 34.03820 | -118.25575 | 4640 ft | 240 kts | 82° |
| 2026-04-26 06:21 | 34.04035 | -118.23613 | 4195 ft | 237 kts | 82° |
| 2026-04-26 06:21 | 34.04254 | -118.21646 | 3854 ft | 236 kts | 82° |
| 2026-04-26 06:21 | 34.04470 | -118.19707 | 3619 ft | 232 kts | 82° |
| 2026-04-26 06:22 | 34.04671 | -118.17786 | 3344 ft | 230 kts | 87° |
| 2026-04-26 06:22 | 34.04360 | -118.15946 | 3085 ft | 224 kts | 123° |
| 2026-04-26 06:22 | 34.03266 | -118.14674 | 2995 ft | 221 kts | 158° |
| 2026-04-26 06:22 | 34.01802 | -118.14110 | 2997 ft | 220 kts | 169° |
| 2026-04-26 06:23 | 34.00301 | -118.13725 | 3000 ft | 220 kts | 171° |
| 2026-04-26 06:23 | 33.98794 | -118.13641 | 2985 ft | 217 kts | 196° |
| 2026-04-26 06:23 | 33.97424 | -118.14362 | 2996 ft | 214 kts | 218° |
| 2026-04-26 06:23 | 33.96400 | -118.15636 | 2989 ft | 211 kts | 240° |
| 2026-04-26 06:24 | 33.95861 | -118.17263 | 3004 ft | 209 kts | 262° |
| 2026-04-26 06:24 | 33.95683 | -118.18995 | 3006 ft | 210 kts | 264° |
| 2026-04-26 06:24 | 33.95508 | -118.20742 | 2947 ft | 209 kts | 263° |
| 2026-04-26 06:24 | 33.95333 | -118.22482 | 2739 ft | 209 kts | 263° |
| 2026-04-26 06:25 | 33.95161 | -118.24189 | 2481 ft | 204 kts | 263° |
| 2026-04-26 06:25 | 33.94996 | -118.25831 | 2214 ft | 191 kts | 263° |
| 2026-04-26 06:25 | 33.94840 | -118.27373 | 1966 ft | 183 kts | 263° |
| 2026-04-26 06:25 | 33.94688 | -118.28887 | 1745 ft | 178 kts | 263° |
| 2026-04-26 06:26 | 33.94542 | -118.30327 | 1488 ft | 168 kts | 263° |
| 2026-04-26 06:26 | 33.94411 | -118.31618 | 1267 ft | 143 kts | 263° |
| 2026-04-26 06:26 | 33.94296 | -118.32745 | 1081 ft | 134 kts | 264° |
| 2026-04-26 06:26 | 33.94184 | -118.33859 | 889 ft | 133 kts | 262° |
| 2026-04-26 06:27 | 33.94073 | -118.34974 | 771 ft | 134 kts | 262° |
| 2026-04-26 06:27 | 33.93972 | -118.36090 | 585 ft | 134 kts | 262° |
| 2026-04-26 06:27 | 33.93857 | -118.37194 | 423 ft | 134 kts | 261° |
| 2026-04-26 06:27 | 33.93738 | -118.38295 | 199 ft | 131 kts | 260° |
| 2026-04-26 06:28 | 33.93630 | -118.39325 | 129 ft | 115 kts | 260° |
| 2026-04-26 06:28 | 33.93555 | -118.40036 | 126 ft | 59 kts | 267° |
| 2026-04-26 06:28 | 33.93625 | -118.40354 | 126 ft | 3 kts | 294° |
| 2026-04-26 06:28 | 33.93626 | -118.40355 | 126 ft | 0 kts | 299° |